Sea Cloud II — 9HUE6 — position and weather

sailwx.info

Track history (hours):
 
Tides and Currents Weather Stations Pressure Air Temp Water Temp Dewpoint Dewpoint Depression Visibility Wind Speed Wind Dir Waves Ship Positions

Sea Cloud II

Ship's website: http://www.seacloud.com/en/the-ships/sea-cloud-ii.html

Last reported at 2015-Jul-27 15:12 UTC. Time now 2015-Jul-28 03:31 UTC.
Position N 59°32' E 023°41'.

Length 117 m; draft 6 m.

Type: Passenger vessel. MMSI: 248953000.

Date/timePositionNaut miles runAvg speedWind from/ knotsBaromVisibWave heightAir tempDewpointWater temp
2015-Jul-27 15:12N 59°32' E 023°41'26 9.7
2015-Jul-27 12:29N 59°30' E 024°33'7 7.8
2015-Jul-27 11:31N 59°27' E 024°47'1 0.2
2015-Jul-27 08:08N 59°27' E 024°46'0 0.0
2015-Jul-27 07:20N 59°27' E 024°46'0 0.0
2015-Jul-27 06:23N 59°27' E 024°46'0 0.0
2015-Jul-27 05:29N 59°27' E 024°46'2 2.5
2015-Jul-27 04:33N 59°29' E 024°45'7 6.9
2015-Jul-27 03:33N 59°35' E 024°40'7 7.3
2015-Jul-27 02:33N 59°43' E 024°39'4 3.9
2015-Jul-27 01:33N 59°46' E 024°39'60 2.6
2015-Jul-26 02:20N 60°02' E 026°35'911.4
2015-Jul-26 01:32N 60°00' E 026°54'1410.7
2015-Jul-26 00:14N 60°05' E 027°20'811.2
2015-Jul-25 23:33N 60°09' E 027°33'6910.7
2015-Jul-25 17:08N 59°58' E 029°49'611.2
2015-Jul-25 16:33N 59°55' E 030°01'7 6.7
2015-Jul-25 15:33N 59°55' E 030°14'2 2.0
2015-Jul-25 14:31N 59°56' E 030°17'0 0.0
2015-Jul-25 13:31N 59°56' E 030°17'0 0.0
2015-Jul-25 12:31N 59°56' E 030°17'0 0.0
2015-Jul-25 11:31N 59°56' E 030°17'0 0.0
2015-Jul-25 10:31N 59°56' E 030°17'0 0.0
2015-Jul-25 09:31N 59°56' E 030°17'0 0.0
2015-Jul-25 08:31N 59°56' E 030°17'0 0.0
2015-Jul-25 07:31N 59°56' E 030°17'0 0.0
2015-Jul-25 06:31N 59°56' E 030°17'0 0.0
2015-Jul-25 05:31N 59°56' E 030°17'0 0.0
2015-Jul-25 04:31N 59°56' E 030°17'0 0.0
2015-Jul-25 03:31N 59°56' E 030°17'0 0.0
2015-Jul-25 02:31N 59°56' E 030°17'0 0.0
2015-Jul-25 01:31N 59°56' E 030°17'0 0.0
2015-Jul-25 00:31N 59°56' E 030°17'0 0.0
2015-Jul-24 23:31N 59°56' E 030°17'0 0.0
2015-Jul-24 22:31N 59°56' E 030°17'0 0.0
2015-Jul-24 21:31N 59°56' E 030°17'0 0.0
2015-Jul-24 20:31N 59°56' E 030°17'0 0.0
2015-Jul-24 19:31N 59°56' E 030°17'0 0.0
2015-Jul-24 18:31N 59°56' E 030°17'0 0.0
2015-Jul-24 17:31N 59°56' E 030°17'0 0.0
2015-Jul-24 16:31N 59°56' E 030°17'0 0.0
2015-Jul-24 15:31N 59°56' E 030°17'0 0.0
2015-Jul-24 14:31N 59°56' E 030°17'0 0.0
2015-Jul-24 13:31N 59°56' E 030°17'0 0.0
2015-Jul-24 12:31N 59°56' E 030°17'0 0.0
2015-Jul-24 11:28N 59°56' E 030°17'0 0.0
2015-Jul-24 10:31N 59°56' E 030°17'0 0.0
2015-Jul-24 09:31N 59°56' E 030°17'0 0.0
2015-Jul-24 08:31N 59°56' E 030°17'0 0.0
2015-Jul-24 07:31N 59°56' E 030°17'0 0.0
2015-Jul-24 06:31N 59°56' E 030°17'0 0.0
2015-Jul-24 05:31N 59°56' E 030°17'0 0.0
2015-Jul-24 04:33N 59°56' E 030°17'2 2.4
2015-Jul-24 03:33N 59°54' E 030°14'7 7.1
2015-Jul-24 02:33N 59°55' E 029°60'1110.7
2015-Jul-24 01:33N 59°60' E 029°40'89 9.9
2015-Jul-23 16:33N 59°59' E 026°42'1210.8
2015-Jul-23 15:26N 59°57' E 026°18'51 2.8
2015-Jul-22 21:33N 59°39' E 024°44'7 6.5
2015-Jul-22 20:33N 59°32' E 024°44'5 5.2
2015-Jul-22 19:32N 59°27' E 024°46'0 0.0
2015-Jul-22 18:29N 59°27' E 024°46'0 0.0
2015-Jul-22 17:32N 59°27' E 024°46'0 0.0
2015-Jul-22 16:32N 59°27' E 024°46'0 0.0
2015-Jul-22 15:32N 59°27' E 024°46'0 0.0
2015-Jul-22 14:29N 59°27' E 024°46'0 0.0
2015-Jul-22 13:32N 59°27' E 024°46'0 0.0
2015-Jul-22 11:17N 59°27' E 024°46'0 0.0
2015-Jul-22 10:32N 59°27' E 024°46'1 1.0
2015-Jul-22 09:33N 59°28' E 024°47'4 4.3
2015-Jul-22 08:33N 59°30' E 024°40'202 9.2
2015-Jul-21 10:33N 59°19' E 018°05'0 0.0
2015-Jul-21 04:09N 59°19' E 018°05'0 0.0
2015-Jul-21 02:30N 59°19' E 018°05'0 0.0
2015-Jul-21 01:30N 59°19' E 018°05'0 0.0
2015-Jul-21 00:33N 59°19' E 018°05'0 0.0
2015-Jul-20 23:21N 59°19' E 018°05'0 0.0
2015-Jul-20 22:33N 59°19' E 018°05'0 0.0
2015-Jul-20 21:21N 59°19' E 018°05'0 0.0
2015-Jul-20 20:21N 59°19' E 018°05'0 0.0
2015-Jul-20 19:15N 59°19' E 018°05'0 0.0
2015-Jul-20 16:33N 59°19' E 018°05'0 0.0
2015-Jul-20 15:21N 59°19' E 018°05'0 0.0
2015-Jul-20 10:27N 59°19' E 018°05'0 0.0
2015-Jul-19 16:32N 59°19' E 018°05'12 5.9
2015-Jul-19 14:33N 59°25' E 018°25'  
Track history (hours):
 
Tides and Currents Weather Stations Pressure Air Temp Water Temp Dewpoint Dewpoint Depression Visibility Wind Speed Wind Dir Waves Ship Positions

Sea Cloud II

Ship's website: http://www.seacloud.com/en/the-ships/sea-cloud-ii.html

Last reported at 2015-Jul-27 15:12 UTC. Time now 2015-Jul-28 03:31 UTC.
Position N 59°32' E 023°41'.

Length 117 m; draft 6 m.

Type: Passenger vessel. MMSI: 248953000.

Date/timePositionNaut miles runAvg speedWind from/ knotsBaromVisibWave heightAir tempDewpointWater temp
2015-Jul-27 15:12N 59°32' E 023°41'26 9.7
2015-Jul-27 12:29N 59°30' E 024°33'7 7.8
2015-Jul-27 11:31N 59°27' E 024°47'1 0.2
2015-Jul-27 08:08N 59°27' E 024°46'0 0.0
2015-Jul-27 07:20N 59°27' E 024°46'0 0.0
2015-Jul-27 06:23N 59°27' E 024°46'0 0.0
2015-Jul-27 05:29N 59°27' E 024°46'2 2.5
2015-Jul-27 04:33N 59°29' E 024°45'7 6.9
2015-Jul-27 03:33N 59°35' E 024°40'7 7.3
2015-Jul-27 02:33N 59°43' E 024°39'4 3.9
2015-Jul-27 01:33N 59°46' E 024°39'60 2.6
2015-Jul-26 02:20N 60°02' E 026°35'911.4
2015-Jul-26 01:32N 60°00' E 026°54'1410.7
2015-Jul-26 00:14N 60°05' E 027°20'811.2
2015-Jul-25 23:33N 60°09' E 027°33'6910.7
2015-Jul-25 17:08N 59°58' E 029°49'611.2
2015-Jul-25 16:33N 59°55' E 030°01'7 6.7
2015-Jul-25 15:33N 59°55' E 030°14'2 2.0
2015-Jul-25 14:31N 59°56' E 030°17'0 0.0
2015-Jul-25 13:31N 59°56' E 030°17'0 0.0
2015-Jul-25 12:31N 59°56' E 030°17'0 0.0
2015-Jul-25 11:31N 59°56' E 030°17'0 0.0
2015-Jul-25 10:31N 59°56' E 030°17'0 0.0
2015-Jul-25 09:31N 59°56' E 030°17'0 0.0
2015-Jul-25 08:31N 59°56' E 030°17'0 0.0
2015-Jul-25 07:31N 59°56' E 030°17'0 0.0
2015-Jul-25 06:31N 59°56' E 030°17'0 0.0
2015-Jul-25 05:31N 59°56' E 030°17'0 0.0
2015-Jul-25 04:31N 59°56' E 030°17'0 0.0
2015-Jul-25 03:31N 59°56' E 030°17'0 0.0
2015-Jul-25 02:31N 59°56' E 030°17'0 0.0
2015-Jul-25 01:31N 59°56' E 030°17'0 0.0
2015-Jul-25 00:31N 59°56' E 030°17'0 0.0
2015-Jul-24 23:31N 59°56' E 030°17'0 0.0
2015-Jul-24 22:31N 59°56' E 030°17'0 0.0
2015-Jul-24 21:31N 59°56' E 030°17'0 0.0
2015-Jul-24 20:31N 59°56' E 030°17'0 0.0
2015-Jul-24 19:31N 59°56' E 030°17'0 0.0
2015-Jul-24 18:31N 59°56' E 030°17'0 0.0
2015-Jul-24 17:31N 59°56' E 030°17'0 0.0
2015-Jul-24 16:31N 59°56' E 030°17'0 0.0
2015-Jul-24 15:31N 59°56' E 030°17'0 0.0
2015-Jul-24 14:31N 59°56' E 030°17'0 0.0
2015-Jul-24 13:31N 59°56' E 030°17'0 0.0
2015-Jul-24 12:31N 59°56' E 030°17'0 0.0
2015-Jul-24 11:28N 59°56' E 030°17'0 0.0
2015-Jul-24 10:31N 59°56' E 030°17'0 0.0
2015-Jul-24 09:31N 59°56' E 030°17'0 0.0
2015-Jul-24 08:31N 59°56' E 030°17'0 0.0
2015-Jul-24 07:31N 59°56' E 030°17'0 0.0
2015-Jul-24 06:31N 59°56' E 030°17'0 0.0
2015-Jul-24 05:31N 59°56' E 030°17'0 0.0
2015-Jul-24 04:33N 59°56' E 030°17'2 2.4
2015-Jul-24 03:33N 59°54' E 030°14'7 7.1
2015-Jul-24 02:33N 59°55' E 029°60'1110.7
2015-Jul-24 01:33N 59°60' E 029°40'89 9.9
2015-Jul-23 16:33N 59°59' E 026°42'1210.8
2015-Jul-23 15:26N 59°57' E 026°18'51 2.8
2015-Jul-22 21:33N 59°39' E 024°44'7 6.5
2015-Jul-22 20:33N 59°32' E 024°44'5 5.2
2015-Jul-22 19:32N 59°27' E 024°46'0 0.0
2015-Jul-22 18:29N 59°27' E 024°46'0 0.0
2015-Jul-22 17:32N 59°27' E 024°46'0 0.0
2015-Jul-22 16:32N 59°27' E 024°46'0 0.0
2015-Jul-22 15:32N 59°27' E 024°46'0 0.0
2015-Jul-22 14:29N 59°27' E 024°46'0 0.0
2015-Jul-22 13:32N 59°27' E 024°46'0 0.0
2015-Jul-22 11:17N 59°27' E 024°46'0 0.0
2015-Jul-22 10:32N 59°27' E 024°46'1 1.0
2015-Jul-22 09:33N 59°28' E 024°47'4 4.3
2015-Jul-22 08:33N 59°30' E 024°40'202 9.2
2015-Jul-21 10:33N 59°19' E 018°05'0 0.0
2015-Jul-21 04:09N 59°19' E 018°05'0 0.0
2015-Jul-21 02:30N 59°19' E 018°05'0 0.0
2015-Jul-21 01:30N 59°19' E 018°05'0 0.0
2015-Jul-21 00:33N 59°19' E 018°05'0 0.0
2015-Jul-20 23:21N 59°19' E 018°05'0 0.0
2015-Jul-20 22:33N 59°19' E 018°05'0 0.0
2015-Jul-20 21:21N 59°19' E 018°05'0 0.0
2015-Jul-20 20:21N 59°19' E 018°05'0 0.0
2015-Jul-20 19:15N 59°19' E 018°05'0 0.0
2015-Jul-20 16:33N 59°19' E 018°05'0 0.0
2015-Jul-20 15:21N 59°19' E 018°05'0 0.0
2015-Jul-20 10:27N 59°19' E 018°05'0 0.0
2015-Jul-19 16:32N 59°19' E 018°05'12 5.9
2015-Jul-19 14:33N 59°25' E 018°25'  

Dump ship's entire track history